createdAt,value
2022-10-09T00:01:28.108Z,97928.06
2022-10-09T00:03:57.749Z,97931.50
2022-10-09T00:06:30.132Z,97935.94
2022-10-09T00:08:58.675Z,97933.22
2022-10-09T00:11:29.534Z,97929.72
2022-10-09T00:13:58.653Z,97935.97
2022-10-09T00:16:27.579Z,97936.94
2022-10-09T00:18:56.464Z,97932.09
2022-10-09T00:21:26.452Z,97940.69
2022-10-09T00:23:59.024Z,97934.75
2022-10-09T00:26:28.004Z,97931.28
2022-10-09T00:28:57.037Z,97939.19
2022-10-09T00:31:25.879Z,97937.44
2022-10-09T00:33:54.365Z,97941.06
2022-10-09T00:36:24.537Z,97948.19
2022-10-09T00:38:54.648Z,97948.31
2022-10-09T00:41:26.858Z,97953.59
2022-10-09T00:43:57.417Z,97957.25
2022-10-09T00:46:31.446Z,97962.66
2022-10-09T00:49:10.427Z,97960.03
2022-10-09T00:51:39.236Z,97954.25
2022-10-09T00:54:13.043Z,97956.63
2022-10-09T00:56:43.046Z,97956.53
2022-10-09T00:59:12.879Z,97952.38
2022-10-09T01:01:42.366Z,97960.22
2022-10-09T01:04:10.741Z,97957.66
2022-10-09T01:06:55.096Z,97951.75
2022-10-09T01:09:28.870Z,97952.59
2022-10-09T01:12:05.548Z,97954.38
2022-10-09T01:14:39.717Z,97953.31
2022-10-09T01:17:16.643Z,97955.31
2022-10-09T01:19:56.425Z,97952.75
2022-10-09T01:22:41.246Z,97954.59
2022-10-09T01:25:12.509Z,97950.16
2022-10-09T01:27:42.502Z,97951.06
2022-10-09T01:30:13.602Z,97953.31
2022-10-09T01:32:45.491Z,97948.28
2022-10-09T01:35:15.692Z,97948.31
2022-10-09T01:37:47.052Z,97961.06
2022-10-09T01:40:18.396Z,97955.72
2022-10-09T01:42:48.428Z,97954.31
2022-10-09T01:45:17.916Z,97958.47
2022-10-09T01:47:46.483Z,97962.91
2022-10-09T01:50:23.142Z,97960.31
2022-10-09T01:52:54.506Z,97964.66
2022-10-09T01:55:37.396Z,97964.66
2022-10-09T01:58:16.408Z,97965.69
2022-10-09T02:00:48.353Z,97969.09
2022-10-09T02:03:17.810Z,97971.59
2022-10-09T02:05:49.601Z,97964.66
2022-10-09T02:08:20.313Z,97971.63
2022-10-09T02:10:50.712Z,97972.59
2022-10-09T02:13:22.707Z,97980.34
2022-10-09T02:15:54.839Z,97985.47
2022-10-09T02:18:30.778Z,97980.34
2022-10-09T02:21:04.296Z,97979.75
2022-10-09T02:23:33.227Z,97977.88
2022-10-09T02:26:01.636Z,97976.28
2022-10-09T02:28:31.668Z,97987.50
2022-10-09T02:31:05.445Z,97984.94
2022-10-09T02:33:34.726Z,97985.75
2022-10-09T02:36:04.414Z,97991.78
2022-10-09T02:38:32.570Z,97987.59
2022-10-09T02:41:01.418Z,97992.84
2022-10-09T02:43:31.349Z,97991.00
2022-10-09T02:45:59.588Z,97990.19
2022-10-09T02:48:27.739Z,97994.56
2022-10-09T02:50:56.103Z,97999.78
2022-10-09T02:53:24.673Z,97996.31
2022-10-09T02:55:53.060Z,97995.47
2022-10-09T02:58:21.516Z,98000.59
2022-10-09T03:00:51.985Z,98001.44
2022-10-09T03:03:21.251Z,98001.28
2022-10-09T03:05:49.659Z,98006.63
2022-10-09T03:08:18.935Z,98009.25
2022-10-09T03:10:47.475Z,98013.59
2022-10-09T03:13:15.595Z,98016.25
2022-10-09T03:15:43.948Z,98021.50
2022-10-09T03:18:13.615Z,98016.25
2022-10-09T03:20:42.019Z,98017.97
2022-10-09T03:23:10.328Z,98010.16
2022-10-09T03:25:38.465Z,98010.94
2022-10-09T03:28:06.637Z,98012.69
2022-10-09T03:30:43.023Z,98012.63
2022-10-09T03:33:11.244Z,98015.28
2022-10-09T03:35:41.986Z,98022.19
2022-10-09T03:38:10.181Z,98019.66
2022-10-09T03:40:38.523Z,98023.16
2022-10-09T03:43:06.776Z,98025.78
2022-10-09T03:45:35.495Z,98033.53
2022-10-09T03:48:03.605Z,98029.22
2022-10-09T03:50:32.019Z,98028.47
2022-10-09T03:53:01.649Z,98031.94
2022-10-09T03:55:29.888Z,98031.91
2022-10-09T03:57:58.139Z,98041.44
2022-10-09T04:00:26.690Z,98043.19
2022-10-09T04:02:54.849Z,98038.06
2022-10-09T04:05:23.787Z,98038.06
2022-10-09T04:07:51.950Z,98040.63
2022-10-09T04:10:21.530Z,98042.38
2022-10-09T04:12:49.891Z,98042.34
2022-10-09T04:15:18.461Z,98049.25
2022-10-09T04:17:46.631Z,98040.69
2022-10-09T04:20:14.761Z,98044.16
2022-10-09T04:22:42.935Z,98051.84
2022-10-09T04:25:11.122Z,98044.09
2022-10-09T04:27:40.826Z,98043.25
2022-10-09T04:30:10.912Z,98048.38
2022-10-09T04:33:05.507Z,98053.44
2022-10-09T04:35:35.210Z,98048.06
2022-10-09T04:38:03.244Z,98051.41
2022-10-09T04:40:31.415Z,98044.44
2022-10-09T04:43:00.931Z,98055.69
2022-10-09T04:45:29.653Z,98054.00
2022-10-09T04:47:57.776Z,98042.69
2022-10-09T04:50:26.198Z,98049.50
2022-10-09T04:53:00.146Z,98045.22
2022-10-09T04:55:28.415Z,98041.66
2022-10-09T04:57:56.623Z,98046.91
2022-10-09T05:00:26.364Z,98052.91
2022-10-09T05:02:54.779Z,98057.09
2022-10-09T05:05:23.589Z,98056.41
2022-10-09T05:07:52.093Z,98061.72
2022-10-09T05:10:20.342Z,98067.84
2022-10-09T05:12:48.577Z,98065.31
2022-10-09T05:15:17.019Z,98060.19
2022-10-09T05:17:46.496Z,98074.06
2022-10-09T05:20:14.697Z,98067.28
2022-10-09T05:22:45.186Z,98073.31
2022-10-09T05:25:13.586Z,98079.34
2022-10-09T05:27:42.022Z,98079.31
2022-10-09T05:30:11.585Z,98079.28
2022-10-09T05:32:39.698Z,98080.06
2022-10-09T05:35:10.396Z,98079.97
2022-10-09T05:37:38.539Z,98059.06
2022-10-09T05:40:08.135Z,98076.19
2022-10-09T05:42:36.563Z,98070.97
2022-10-09T05:45:05.186Z,98077.69
2022-10-09T05:47:33.269Z,98072.50
2022-10-09T05:50:01.595Z,98073.47
2022-10-09T05:52:31.290Z,98076.97
2022-10-09T05:54:59.918Z,98081.38
2022-10-09T05:57:29.249Z,98080.47
2022-10-09T05:59:57.471Z,98090.66
2022-10-09T06:02:26.128Z,98089.63
2022-10-09T06:04:54.233Z,98088.53
2022-10-09T06:07:22.429Z,98095.72
2022-10-09T06:09:52.067Z,98098.97
2022-10-09T06:12:20.085Z,98099.13
2022-10-09T06:14:48.121Z,98102.56
2022-10-09T06:17:16.342Z,98095.72
2022-10-09T06:19:44.568Z,98101.56
2022-10-09T06:22:12.949Z,98103.16
2022-10-09T06:24:41.169Z,98101.22
2022-10-09T06:27:13.192Z,98110.44
2022-10-09T06:29:41.578Z,98105.75
2022-10-09T06:32:09.929Z,98108.00
2022-10-09T06:34:38.202Z,98106.88
2022-10-09T06:37:06.285Z,98115.13
2022-10-09T06:39:34.535Z,98115.75
2022-10-09T06:42:04.123Z,98118.97
2022-10-09T06:44:44.541Z,98119.63
2022-10-09T06:47:12.710Z,98120.09
2022-10-09T06:49:41.109Z,98125.75
2022-10-09T06:52:09.698Z,98127.38
2022-10-09T06:54:38.238Z,98133.09
2022-10-09T06:57:06.379Z,98136.59
2022-10-09T06:59:34.526Z,98131.72
2022-10-09T07:02:04.661Z,98120.63
2022-10-09T07:04:32.846Z,98109.34
2022-10-09T07:07:01.262Z,98105.78
2022-10-09T07:09:29.466Z,98112.47
2022-10-09T07:11:57.703Z,98115.25
2022-10-09T07:14:26.264Z,98119.38
2022-10-09T07:16:54.805Z,98126.28
2022-10-09T07:19:24.527Z,98118.97
2022-10-09T07:21:53.047Z,98120.31
2022-10-09T07:24:21.444Z,98116.38
2022-10-09T07:26:50.108Z,98120.94
2022-10-09T07:29:19.727Z,98118.84
2022-10-09T07:31:49.938Z,98120.63
2022-10-09T07:34:18.593Z,98117.38
2022-10-09T07:36:48.207Z,98119.06
2022-10-09T07:39:18.987Z,98125.72
2022-10-09T07:41:47.789Z,98139.13
2022-10-09T07:44:16.150Z,98126.41
2022-10-09T07:46:44.445Z,98126.22
2022-10-09T07:49:12.771Z,98122.44
2022-10-09T07:51:40.731Z,98121.25
2022-10-09T07:54:10.425Z,98123.03
2022-10-09T07:56:39.136Z,98123.84
2022-10-09T07:59:12.783Z,98115.38
2022-10-09T08:01:42.213Z,98130.47
2022-10-09T08:04:10.821Z,98134.34
2022-10-09T08:06:39.028Z,98130.81
2022-10-09T08:09:08.313Z,98132.19
2022-10-09T08:11:40.859Z,98131.78
2022-10-09T08:14:18.082Z,98132.91
2022-10-09T08:16:47.943Z,98133.94
2022-10-09T08:19:16.632Z,98131.34
2022-10-09T08:21:45.010Z,98137.66
2022-10-09T08:24:13.432Z,98137.63
2022-10-09T08:26:44.314Z,98132.75
2022-10-09T08:29:16.195Z,98122.25
2022-10-09T08:31:44.629Z,98130.19
2022-10-09T08:34:13.014Z,98133.13
2022-10-09T08:36:41.212Z,98138.19
2022-10-09T08:39:09.439Z,98139.63
2022-10-09T08:41:46.439Z,98133.13
2022-10-09T08:44:20.268Z,98134.50
2022-10-09T08:46:58.346Z,98133.38
2022-10-09T08:49:32.466Z,98142.91
2022-10-09T08:52:13.995Z,98140.28
2022-10-09T08:54:42.465Z,98145.03
2022-10-09T09:00:16.357Z,98145.53
2022-10-09T09:03:02.895Z,98142.84
2022-10-09T09:05:40.954Z,98140.75
2022-10-09T09:08:27.471Z,98129.78
2022-10-09T09:11:12.295Z,98133.47
2022-10-09T09:13:51.170Z,98129.75
2022-10-09T09:16:29.971Z,98132.41
2022-10-09T09:19:14.333Z,98142.56
2022-10-09T09:21:49.082Z,98134.41
2022-10-09T09:24:21.261Z,98137.91
2022-10-09T09:26:51.844Z,98134.69
2022-10-09T09:29:24.854Z,98127.47
2022-10-09T09:31:58.477Z,98130.81
2022-10-09T09:34:35.760Z,98135.28
2022-10-09T09:37:04.083Z,98129.66
2022-10-09T09:40:24.300Z,98136.84
2022-10-09T09:42:23.188Z,98134.91
2022-10-09T09:44:59.070Z,98129.25
2022-10-09T09:47:34.699Z,98139.78
2022-10-09T09:50:04.903Z,98126.75
2022-10-09T09:52:38.837Z,98121.06
2022-10-09T09:55:08.010Z,98131.63
2022-10-09T09:57:41.372Z,98135.34
2022-10-09T10:00:20.813Z,98129.88
2022-10-09T10:02:49.471Z,98128.69
2022-10-09T10:05:23.207Z,98120.22
2022-10-09T10:07:51.998Z,98132.97
2022-10-09T10:10:25.588Z,98130.59
2022-10-09T10:12:58.257Z,98130.53
2022-10-09T10:15:29.540Z,98125.44
2022-10-09T10:18:03.295Z,98127.75
2022-10-09T10:20:33.306Z,98120.63
2022-10-09T10:23:02.226Z,98122.00
2022-10-09T10:25:34.834Z,98116.47
2022-10-09T10:28:07.068Z,98126.63
2022-10-09T10:31:04.372Z,98130.31
2022-10-09T10:33:35.368Z,98131.44
2022-10-09T10:36:04.290Z,98118.47
2022-10-09T10:38:37.070Z,98114.81
2022-10-09T10:41:13.860Z,98108.22
2022-10-09T10:43:45.097Z,98108.38
2022-10-09T10:46:24.076Z,98109.59
2022-10-09T10:48:52.423Z,98110.22
2022-10-09T10:51:52.159Z,98114.09
2022-10-09T10:54:31.745Z,98113.31
2022-10-09T10:57:08.877Z,98109.25
2022-10-09T10:59:40.857Z,98104.88
2022-10-09T11:02:32.679Z,98107.22
2022-10-09T11:05:13.866Z,98098.78
2022-10-09T11:07:51.384Z,98099.94
2022-10-09T11:10:29.156Z,98092.31
2022-10-09T11:13:02.704Z,98091.50
2022-10-09T11:15:38.701Z,98089.66
2022-10-09T11:18:25.815Z,98086.38
2022-10-09T11:21:06.677Z,98081.38
2022-10-09T11:23:49.448Z,98077.41
2022-10-09T11:26:27.149Z,98086.13
2022-10-09T11:29:02.116Z,98074.41
2022-10-09T11:31:36.681Z,98065.22
2022-10-09T11:34:13.601Z,98063.69
2022-10-09T11:36:44.096Z,98066.03
2022-10-09T11:39:18.166Z,98053.06
2022-10-09T11:41:48.796Z,98053.81
2022-10-09T11:44:35.814Z,98054.00
2022-10-09T11:47:11.554Z,98039.09
2022-10-09T11:49:55.061Z,98048.34
2022-10-09T11:52:31.623Z,98049.00
2022-10-09T11:55:09.946Z,98035.34
2022-10-09T11:57:38.471Z,98024.38
2022-10-09T12:00:10.638Z,98033.16
2022-10-09T12:02:39.727Z,98026.78
2022-10-09T12:05:19.603Z,98015.75
2022-10-09T12:07:48.175Z,98012.84
2022-10-09T12:10:34.802Z,98023.06
2022-10-09T12:13:05.831Z,98019.25
2022-10-09T12:15:40.922Z,98015.03
2022-10-09T12:18:18.270Z,98013.50
2022-10-09T12:20:50.498Z,98009.91
2022-10-09T12:23:31.059Z,98009.84
2022-10-09T12:26:03.731Z,98011.94
2022-10-09T12:28:36.863Z,98011.19
2022-10-09T12:31:16.825Z,98003.94
2022-10-09T12:33:50.673Z,97992.84
2022-10-09T12:36:26.544Z,98002.25
2022-10-09T12:39:00.080Z,97988.88
2022-10-09T12:41:38.168Z,97993.63
2022-10-09T12:44:23.486Z,97996.16
2022-10-09T12:46:58.815Z,97986.22
2022-10-09T12:49:33.508Z,97983.44
2022-10-09T12:52:19.455Z,97985.06
2022-10-09T12:54:53.533Z,97984.47
2022-10-09T12:57:31.327Z,97976.41
2022-10-09T13:00:04.932Z,97989.91
2022-10-09T13:02:36.799Z,97980.31
2022-10-09T13:05:06.209Z,97984.88
2022-10-09T13:07:35.793Z,97974.09
2022-10-09T13:10:08.342Z,97975.16
2022-10-09T13:12:36.594Z,97978.38
2022-10-09T13:15:06.946Z,97974.13
2022-10-09T13:17:38.468Z,97972.16
2022-10-09T13:20:26.907Z,97959.31
2022-10-09T13:22:59.274Z,97966.28
2022-10-09T13:25:31.163Z,97961.19
2022-10-09T13:27:59.955Z,97959.41
2022-10-09T13:30:54.502Z,97953.53
2022-10-09T13:33:23.323Z,97948.41
2022-10-09T13:35:51.591Z,97935.69
2022-10-09T13:38:23.981Z,97940.81
2022-10-09T13:40:54.063Z,97931.59
2022-10-09T13:43:26.673Z,97945.63
2022-10-09T13:45:55.820Z,97938.34
2022-10-09T13:48:26.986Z,97931.44
2022-10-09T13:50:59.334Z,97930.69
2022-10-09T13:53:29.763Z,97931.56
2022-10-09T13:56:00.821Z,97929.94
2022-10-09T13:58:31.500Z,97935.50
2022-10-09T14:01:00.469Z,97932.47
2022-10-09T14:03:29.968Z,97934.34
2022-10-09T14:06:04.613Z,97927.44
2022-10-09T14:08:36.636Z,97926.41
2022-10-09T14:11:06.779Z,97921.03
2022-10-09T14:13:36.173Z,97922.50
2022-10-09T14:16:06.325Z,97925.56
2022-10-09T14:18:35.757Z,97916.56
2022-10-09T14:21:14.650Z,97912.75
2022-10-09T14:23:46.535Z,97913.28
2022-10-09T14:26:14.888Z,97911.38
2022-10-09T14:28:44.169Z,97904.00
2022-10-09T14:31:14.629Z,97902.38
2022-10-09T14:33:45.253Z,97890.09
2022-10-09T14:36:16.999Z,97884.00
2022-10-09T14:38:50.181Z,97891.97
2022-10-09T14:41:20.547Z,97880.88
2022-10-09T14:43:55.734Z,97892.69
2022-10-09T14:46:27.330Z,97890.41
2022-10-09T14:48:56.905Z,97886.56
2022-10-09T14:51:28.159Z,97886.75
2022-10-09T14:53:59.117Z,97877.91
2022-10-09T14:56:28.952Z,97878.81
2022-10-09T14:59:01.192Z,97878.06
2022-10-09T15:01:32.714Z,97873.25
2022-10-09T15:04:02.190Z,97877.41
2022-10-09T15:06:30.826Z,97870.75
2022-10-09T15:09:05.568Z,97874.47
2022-10-09T15:11:35.913Z,97863.13
2022-10-09T15:14:06.614Z,97876.50
2022-10-09T15:16:37.365Z,97873.69
2022-10-09T15:19:06.241Z,97875.00
2022-10-09T15:21:36.395Z,97878.94
2022-10-09T15:24:07.286Z,97875.53
2022-10-09T15:26:37.021Z,97866.63
2022-10-09T15:29:08.319Z,97863.91
2022-10-09T15:31:40.036Z,97864.00
2022-10-09T15:34:11.796Z,97858.41
2022-10-09T15:36:44.509Z,97865.13
2022-10-09T15:39:15.404Z,97862.91
2022-10-09T15:41:45.271Z,97858.75
2022-10-09T15:44:18.655Z,97858.72
2022-10-09T15:46:49.784Z,97854.44
2022-10-09T15:49:18.955Z,97856.50
2022-10-09T15:51:48.935Z,97859.25
2022-10-09T15:54:19.515Z,97866.69
2022-10-09T15:56:49.137Z,97862.06
2022-10-09T15:59:18.312Z,97873.28
2022-10-09T16:01:46.697Z,97866.88
2022-10-09T16:04:16.452Z,97866.06
2022-10-09T16:06:46.776Z,97870.50
2022-10-09T16:09:16.917Z,97865.94
2022-10-09T16:11:47.450Z,97877.72
2022-10-09T16:14:15.827Z,97871.09
2022-10-09T16:16:46.083Z,97875.22
2022-10-09T16:19:15.991Z,97872.31
2022-10-09T16:21:45.660Z,97864.56
2022-10-09T16:24:13.908Z,97870.25
2022-10-09T16:26:42.784Z,97863.00
2022-10-09T16:29:14.946Z,97865.16
2022-10-09T16:31:45.309Z,97866.47
2022-10-09T16:34:16.095Z,97873.00
2022-10-09T16:36:46.386Z,97868.41
2022-10-09T16:39:14.803Z,97863.66
2022-10-09T16:41:43.574Z,97873.13
2022-10-09T16:44:17.036Z,97878.31
2022-10-09T16:46:46.064Z,97869.22
2022-10-09T16:49:21.273Z,97868.59
2022-10-09T16:51:53.115Z,97862.88
2022-10-09T16:54:21.341Z,97873.41
2022-10-09T16:56:50.478Z,97872.69
2022-10-09T16:59:21.854Z,97877.34
2022-10-09T17:01:52.392Z,97878.19
2022-10-09T17:04:22.939Z,97873.59
2022-10-09T17:06:52.691Z,97875.44
2022-10-09T17:09:22.067Z,97874.97
2022-10-09T17:11:50.599Z,97870.06
2022-10-09T17:14:20.409Z,97877.19
2022-10-09T17:16:49.077Z,97871.78
2022-10-09T17:19:17.773Z,97872.78
2022-10-09T17:21:46.448Z,97874.53
2022-10-09T17:24:16.280Z,97877.75
2022-10-09T17:26:46.340Z,97877.56
2022-10-09T17:29:16.244Z,97875.94
2022-10-09T17:31:47.845Z,97875.25
2022-10-09T17:34:16.407Z,97870.31
2022-10-09T17:36:46.268Z,97876.50
2022-10-09T17:39:17.485Z,97875.66
2022-10-09T17:41:47.473Z,97869.16
2022-10-09T17:44:17.764Z,97862.25
2022-10-09T17:46:47.441Z,97864.31
2022-10-09T17:49:16.605Z,97860.88
2022-10-09T17:51:45.166Z,97856.94
2022-10-09T17:54:17.036Z,97854.16
2022-10-09T17:56:47.262Z,97854.72
2022-10-09T17:59:17.383Z,97852.78
2022-10-09T18:01:48.782Z,97844.47
2022-10-09T18:04:18.237Z,97849.59
2022-10-09T18:06:47.854Z,97841.28
2022-10-09T18:09:17.752Z,97851.22
2022-10-09T18:11:47.344Z,97847.94
2022-10-09T18:14:17.131Z,97847.38
2022-10-09T18:16:47.267Z,97842.63
2022-10-09T18:19:19.913Z,97835.88
2022-10-09T18:21:50.535Z,97848.63
2022-10-09T18:24:19.522Z,97837.84
2022-10-09T18:26:48.165Z,97846.97
2022-10-09T18:29:16.376Z,97842.66
2022-10-09T18:31:45.780Z,97843.91
2022-10-09T18:34:16.522Z,97847.69
2022-10-09T18:36:46.266Z,97839.16
2022-10-09T18:39:16.719Z,97840.00
2022-10-09T18:41:47.109Z,97836.59
2022-10-09T18:44:19.933Z,97839.50
2022-10-09T18:46:50.574Z,97838.00
2022-10-09T18:49:26.296Z,97832.50
2022-10-09T18:51:55.904Z,97834.19
2022-10-09T18:54:26.923Z,97825.63
2022-10-09T18:56:56.047Z,97827.81
2022-10-09T18:59:25.826Z,97834.63
2022-10-09T19:01:54.161Z,97831.25
2022-10-09T19:04:24.962Z,97831.28
2022-10-09T19:06:55.550Z,97824.44
2022-10-09T19:09:23.931Z,97831.25
2022-10-09T19:11:53.503Z,97829.44
2022-10-09T19:14:22.271Z,97823.47
2022-10-09T19:16:50.797Z,97829.31
2022-10-09T19:19:19.320Z,97831.94
2022-10-09T19:21:50.769Z,97835.19
2022-10-09T19:24:20.901Z,97834.53
2022-10-09T19:26:50.670Z,97833.16
2022-10-09T19:29:19.155Z,97837.56
2022-10-09T19:31:50.462Z,97841.84
2022-10-09T19:34:19.828Z,97834.09
2022-10-09T19:36:52.387Z,97831.56
2022-10-09T19:39:22.765Z,97836.81
2022-10-09T19:41:52.943Z,97830.69
2022-10-09T19:44:22.466Z,97822.94
2022-10-09T19:46:52.112Z,97823.03
2022-10-09T19:49:21.453Z,97820.78
2022-10-09T19:51:51.438Z,97818.03
2022-10-09T19:54:21.041Z,97811.84
2022-10-09T19:56:50.212Z,97822.22
2022-10-09T19:59:18.621Z,97823.25
2022-10-09T20:01:48.461Z,97815.47
2022-10-09T20:04:17.409Z,97809.34
2022-10-09T20:06:47.676Z,97806.22
2022-10-09T20:09:18.654Z,97809.50
2022-10-09T20:11:48.303Z,97811.22
2022-10-09T20:14:16.655Z,97812.22
2022-10-09T20:16:46.128Z,97810.56
2022-10-09T20:19:14.387Z,97801.81
2022-10-09T20:21:42.335Z,97804.41
2022-10-09T20:24:10.927Z,97805.22
2022-10-09T20:26:43.322Z,97810.41
2022-10-09T20:29:12.174Z,97804.34
2022-10-09T20:31:41.393Z,97804.53
2022-10-09T20:34:10.149Z,97802.78
2022-10-09T20:36:40.459Z,97804.34
2022-10-09T20:39:11.642Z,97798.47
2022-10-09T20:41:43.148Z,97789.72
2022-10-09T20:44:13.308Z,97792.56
2022-10-09T20:46:42.787Z,97781.50
2022-10-09T20:49:14.057Z,97781.59
2022-10-09T20:51:43.754Z,97783.38
2022-10-09T20:54:18.518Z,97775.72
2022-10-09T20:56:49.852Z,97774.69
2022-10-09T20:59:19.701Z,97776.41
2022-10-09T21:02:08.212Z,97771.38
2022-10-09T21:04:37.634Z,97771.44
2022-10-09T21:07:06.146Z,97762.94
2022-10-09T21:09:34.935Z,97768.91
2022-10-09T21:14:59.697Z,97762.00
2022-10-09T21:17:28.259Z,97760.28
2022-10-09T21:19:58.195Z,97769.72
2022-10-09T21:22:27.151Z,97765.56
2022-10-09T21:24:55.912Z,97758.66
2022-10-09T21:27:24.636Z,97756.94
2022-10-09T21:29:53.067Z,97759.25
2022-10-09T21:32:23.403Z,97761.59
2022-10-09T21:34:52.399Z,97757.13
2022-10-09T21:37:22.281Z,97761.38
2022-10-09T21:39:51.616Z,97750.59
2022-10-09T21:42:19.884Z,97752.00
2022-10-09T21:44:49.059Z,97747.91
2022-10-09T21:47:19.552Z,97742.31
2022-10-09T21:49:51.007Z,97739.69
2022-10-09T21:52:19.258Z,97747.59
2022-10-09T21:54:47.897Z,97743.84
2022-10-09T21:57:16.297Z,97734.38
2022-10-09T21:59:44.680Z,97740.19
2022-10-09T22:02:13.056Z,97738.78
2022-10-09T22:04:41.414Z,97733.00
2022-10-09T22:07:11.479Z,97731.09
2022-10-09T22:09:40.211Z,97725.88
2022-10-09T22:12:08.853Z,97731.91
2022-10-09T22:14:37.591Z,97732.56
2022-10-09T22:17:06.322Z,97733.59
2022-10-09T22:19:34.746Z,97737.47
2022-10-09T22:22:03.182Z,97726.22
2022-10-09T22:24:33.137Z,97728.06
2022-10-09T22:27:01.627Z,97726.91
2022-10-09T22:29:30.000Z,97722.84
2022-10-09T22:31:58.565Z,97721.06
2022-10-09T22:34:26.963Z,97717.69
2022-10-09T22:36:55.401Z,97715.72
2022-10-09T22:39:24.234Z,97715.25
2022-10-09T22:41:54.101Z,97712.34
2022-10-09T22:44:22.609Z,97716.97
2022-10-09T22:46:51.919Z,97713.63
2022-10-09T22:49:20.418Z,97705.50
2022-10-09T22:51:48.825Z,97708.28
2022-10-09T22:54:19.023Z,97696.13
2022-10-09T22:56:47.767Z,97701.88
2022-10-09T22:59:19.389Z,97703.88
2022-10-09T23:01:50.143Z,97703.00
2022-10-09T23:04:20.391Z,97699.91
2022-10-09T23:06:52.441Z,97693.53
2022-10-09T23:09:21.835Z,97696.75
2022-10-09T23:11:51.847Z,97690.81
2022-10-09T23:14:21.694Z,97685.13
2022-10-09T23:16:50.303Z,97690.34
2022-10-09T23:19:19.091Z,97674.91
2022-10-09T23:21:48.299Z,97676.25
2022-10-09T23:24:18.054Z,97671.91
2022-10-09T23:26:47.751Z,97670.56
2022-10-09T23:29:18.095Z,97672.53
2022-10-09T23:31:49.683Z,97664.41
2022-10-09T23:34:18.256Z,97664.50
2022-10-09T23:36:46.667Z,97668.63
2022-10-09T23:39:15.115Z,97665.47
2022-10-09T23:41:43.614Z,97659.34
2022-10-09T23:44:12.112Z,97659.88
2022-10-09T23:46:41.473Z,97662.06
2022-10-09T23:49:12.092Z,97656.69
2022-10-09T23:51:41.094Z,97654.34
2022-10-09T23:54:10.039Z,97652.94
2022-10-09T23:56:38.451Z,97646.00
2022-10-09T23:59:08.056Z,97638.91
